Shinkomaru No.8 — JK5142 — position and weather

sailwx.info

Track history (hours):
 
Tides and Currents Weather Stations Pressure Air Temp Water Temp Dewpoint Dewpoint Depression Visibility Wind Speed Wind Dir Waves Ship Positions

Shinkomaru No.8

Last reported at 2014-Nov-25 23:18 UTC. Time now 2014-Nov-26 04:09 UTC.
Position N 35°34' E 139°57'.

Length 61 m; draft 3.2 m.

Type: Tanker. MMSI: 431400035.

Date/timePositionNaut miles runAvg speedWind from/ knotsBaromVisibWave heightAir tempDewpointWater temp
2014-Nov-25 23:18N 35°34' E 139°57'3 4.2
2014-Nov-25 22:33N 35°35' E 139°53'0 0.0
2014-Nov-25 21:15N 35°35' E 139°53'0 0.0
2014-Nov-25 20:06N 35°35' E 139°53'0 0.0
2014-Nov-25 19:12N 35°35' E 139°53'10 0.4
2014-Nov-24 16:33N 35°26' E 139°48'1110.7
2014-Nov-24 15:33N 35°15' E 139°47'  
2014-Nov-19 23:33N 34°08' E 135°03'7 6.7
2014-Nov-19 22:33N 34°13' E 135°09'0 0.0
2014-Nov-19 21:34N 34°13' E 135°09'0 0.0
2014-Nov-19 20:33N 34°13' E 135°09'0 0.0
2014-Nov-19 19:33N 34°13' E 135°09'0 0.0
2014-Nov-19 18:34N 34°13' E 135°09'0 0.0
2014-Nov-19 17:34N 34°13' E 135°09'0 0.0
2014-Nov-19 16:33N 34°13' E 135°09'0 0.0
2014-Nov-19 15:33N 34°13' E 135°09'0 0.0
2014-Nov-19 14:34N 34°13' E 135°09'0 0.0
2014-Nov-19 13:33N 34°13' E 135°09'0 0.0
2014-Nov-19 12:33N 34°13' E 135°09'0 0.0
2014-Nov-19 11:33N 34°13' E 135°09'0 0.0
2014-Nov-19 10:33N 34°13' E 135°09'0 0.0
2014-Nov-19 09:33N 34°13' E 135°09'0 0.0
2014-Nov-19 08:33N 34°13' E 135°09'0 0.0
2014-Nov-19 07:33N 34°13' E 135°09'0 0.0
2014-Nov-19 06:34N 34°13' E 135°09'0 0.0
2014-Nov-19 05:33N 34°13' E 135°09'0 0.0
2014-Nov-19 04:33N 34°13' E 135°09'0 0.0
2014-Nov-19 03:33N 34°13' E 135°09'0 0.0
2014-Nov-19 02:33N 34°13' E 135°09'0 0.0
2014-Nov-19 01:33N 34°13' E 135°09'0 0.0
2014-Nov-19 00:33N 34°13' E 135°09'0 0.0
2014-Nov-18 23:33N 34°13' E 135°09'8 6.1
2014-Nov-18 22:19N 34°19' E 135°04'8 9.9
2014-Nov-18 21:32N 34°26' E 135°01'1010.5
2014-Nov-18 20:33N 34°37' E 135°02'  
Track history (hours):
 
Tides and Currents Weather Stations Pressure Air Temp Water Temp Dewpoint Dewpoint Depression Visibility Wind Speed Wind Dir Waves Ship Positions

Shinkomaru No.8

Last reported at 2014-Nov-25 23:18 UTC. Time now 2014-Nov-26 04:09 UTC.
Position N 35°34' E 139°57'.

Length 61 m; draft 3.2 m.

Type: Tanker. MMSI: 431400035.

Date/timePositionNaut miles runAvg speedWind from/ knotsBaromVisibWave heightAir tempDewpointWater temp
2014-Nov-25 23:18N 35°34' E 139°57'3 4.2
2014-Nov-25 22:33N 35°35' E 139°53'0 0.0
2014-Nov-25 21:15N 35°35' E 139°53'0 0.0
2014-Nov-25 20:06N 35°35' E 139°53'0 0.0
2014-Nov-25 19:12N 35°35' E 139°53'10 0.4
2014-Nov-24 16:33N 35°26' E 139°48'1110.7
2014-Nov-24 15:33N 35°15' E 139°47'  
2014-Nov-19 23:33N 34°08' E 135°03'7 6.7
2014-Nov-19 22:33N 34°13' E 135°09'0 0.0
2014-Nov-19 21:34N 34°13' E 135°09'0 0.0
2014-Nov-19 20:33N 34°13' E 135°09'0 0.0
2014-Nov-19 19:33N 34°13' E 135°09'0 0.0
2014-Nov-19 18:34N 34°13' E 135°09'0 0.0
2014-Nov-19 17:34N 34°13' E 135°09'0 0.0
2014-Nov-19 16:33N 34°13' E 135°09'0 0.0
2014-Nov-19 15:33N 34°13' E 135°09'0 0.0
2014-Nov-19 14:34N 34°13' E 135°09'0 0.0
2014-Nov-19 13:33N 34°13' E 135°09'0 0.0
2014-Nov-19 12:33N 34°13' E 135°09'0 0.0
2014-Nov-19 11:33N 34°13' E 135°09'0 0.0
2014-Nov-19 10:33N 34°13' E 135°09'0 0.0
2014-Nov-19 09:33N 34°13' E 135°09'0 0.0
2014-Nov-19 08:33N 34°13' E 135°09'0 0.0
2014-Nov-19 07:33N 34°13' E 135°09'0 0.0
2014-Nov-19 06:34N 34°13' E 135°09'0 0.0
2014-Nov-19 05:33N 34°13' E 135°09'0 0.0
2014-Nov-19 04:33N 34°13' E 135°09'0 0.0
2014-Nov-19 03:33N 34°13' E 135°09'0 0.0
2014-Nov-19 02:33N 34°13' E 135°09'0 0.0
2014-Nov-19 01:33N 34°13' E 135°09'0 0.0
2014-Nov-19 00:33N 34°13' E 135°09'0 0.0
2014-Nov-18 23:33N 34°13' E 135°09'8 6.1
2014-Nov-18 22:19N 34°19' E 135°04'8 9.9
2014-Nov-18 21:32N 34°26' E 135°01'1010.5
2014-Nov-18 20:33N 34°37' E 135°02'  

Dump ship's entire track history